Abbot, Maine
Current Conditions -  °F | °C
As of 5:15 PM on Wednesday 28 Jan 2015 (Local Time) from KWVL Reporting Station
Clear Clear  
Wind Chill: 13°   Ceiling: Unl
Heat Index: 21°   Visibility: 10mi
Dew Point: 12°   Wind: 7mph
Humidity: 68%   Direction: 340°NNW
Pressure: 29.98"   Gusts: NA
Location:  44.94°N, 69.7°W
Report Text: KWVL 282215Z 34006KT 310V010 10SM CLR M06/M11 A2998 RMK AO1
Loading
Personal Weather Stations






























Interactive Weather Map New forecast layout! Learn more

10-Day Weather Forecast

Advertisements
Track Severe Weather on mobile